Time;durP1;ratioP1;P1;durP2;ratioP2;P2;SDS_P1;SDS_P2;PMS_P1;PMS_P2;Temp;Humidity;BMP_temperature;BMP_pressure;BME280_temperature;BME280_humidity;BME280_pressure;Samples;Min_cycle;Max_cycle;Signal;HPM_P1;HPM_P2
2021/08/18 00:01:52;;;;;;;13.65;8.93;;;;;;;14.36;91.07;101344.16;4972196;28;20022;-73
2021/08/18 00:04:17;;;;;;;15.77;9.73;;;;;;;14.43;90.96;101339.91;5004191;28;20042;-74
2021/08/18 00:06:43;;;;;;;20.13;11.40;;;;;;;14.31;90.92;101344.63;4974745;28;20038;-74
2021/08/18 00:09:08;;;;;;;20.90;13.25;;;;;;;14.29;91.27;101346.59;5000345;28;20419;-74
2021/08/18 00:11:34;;;;;;;20.73;13.15;;;;;;;14.27;91.40;101348.56;4983824;28;20423;-74
2021/08/18 00:13:59;;;;;;;23.98;14.63;;;;;;;14.20;91.87;101347.59;5000897;28;20037;-74
2021/08/18 00:16:27;;;;;;;23.30;14.60;;;;;;;14.21;92.01;101344.81;5004744;28;20100;-74
2021/08/18 00:18:53;;;;;;;24.23;15.75;;;;;;;14.18;92.06;101345.19;4979637;28;20026;-74
2021/08/18 00:21:20;;;;;;;32.05;17.02;;;;;;;14.20;91.80;101342.38;4997649;28;20030;-75
2021/08/18 00:23:46;;;;;;;30.52;18.05;;;;;;;14.31;91.65;101343.81;4981010;28;20757;-75
2021/08/18 00:26:12;;;;;;;31.00;16.85;;;;;;;14.26;91.80;101348.72;5001180;28;20038;-74
2021/08/18 00:28:38;;;;;;;46.67;18.77;;;;;;;14.24;91.98;101348.06;5006118;28;20034;-75
2021/08/18 00:31:03;;;;;;;27.60;17.48;;;;;;;14.38;91.98;101350.81;4999808;28;20113;-75
2021/08/18 00:33:30;;;;;;;29.25;18.83;;;;;;;14.34;91.66;101348.72;5010234;28;20037;-75
2021/08/18 00:35:56;;;;;;;29.45;17.45;;;;;;;14.26;91.74;101346.94;5007558;28;20025;-74
2021/08/18 00:38:21;;;;;;;30.95;19.40;;;;;;;14.26;91.78;101344.34;5008768;28;20700;-75
2021/08/18 00:40:47;;;;;;;31.10;18.60;;;;;;;14.32;91.91;101340.25;4982120;28;20033;-74
2021/08/18 00:43:14;;;;;;;28.38;17.70;;;;;;;14.37;91.59;101338.78;5000118;28;20049;-74
2021/08/18 00:45:39;;;;;;;24.67;15.45;;;;;;;14.33;91.55;101340.06;4975563;28;20399;-74
2021/08/18 00:48:05;;;;;;;25.35;16.33;;;;;;;14.36;91.83;101338.94;4969293;28;20038;-74
2021/08/18 00:50:31;;;;;;;29.08;17.00;;;;;;;14.36;91.62;101336.31;4997993;28;20041;-74
2021/08/18 00:52:56;;;;;;;25.45;16.27;;;;;;;14.32;91.65;101338.44;4992478;28;20057;-74
2021/08/18 00:55:25;;;;;;;25.15;16.58;;;;;;;14.28;91.62;101345.00;4984043;28;20610;-74
2021/08/18 00:57:53;;;;;;;24.05;15.15;;;;;;;14.27;92.01;101334.72;5013713;28;20499;-74
2021/08/18 01:00:20;;;;;;;23.13;14.75;;;;;;;14.31;91.88;101336.00;4981394;28;20424;-74
2021/08/18 01:02:47;;;;;;;24.35;15.35;;;;;;;14.27;92.05;101334.72;4984301;28;20419;-74
2021/08/18 01:05:21;;;;;;;25.00;15.93;;;;;;;14.36;91.74;101334.53;5000425;28;20041;-74
2021/08/18 01:07:49;;;;;;;22.45;14.32;;;;;;;14.28;92.01;101341.53;4999445;28;20026;-74
2021/08/18 01:10:20;;;;;;;21.83;15.43;;;;;;;14.37;92.19;101340.53;5002546;28;20069;-74
2021/08/18 01:12:46;;;;;;;23.00;15.25;;;;;;;14.28;91.92;101337.16;4996523;28;20030;-74
2021/08/18 01:15:14;;;;;;;22.35;14.63;;;;;;;14.38;91.80;101336.97;5004860;28;20040;-74
2021/08/18 01:17:41;;;;;;;20.70;13.93;;;;;;;14.29;91.52;101338.78;5005831;28;20529;-73
2021/08/18 01:20:09;;;;;;;23.02;14.32;;;;;;;14.30;91.63;101339.59;4997642;28;20380;-74
2021/08/18 01:22:35;;;;;;;21.90;13.18;;;;;;;14.31;91.94;101346.44;4986244;28;20432;-73
2021/08/18 01:25:02;;;;;;;20.45;13.68;;;;;;;14.28;91.83;101341.53;4985947;28;20072;-74
2021/08/18 01:27:29;;;;;;;16.83;11.95;;;;;;;14.21;91.98;101341.41;4997813;28;20041;-73
2021/08/18 01:29:54;;;;;;;19.25;12.75;;;;;;;14.18;92.15;101337.34;4974601;28;20046;-73
2021/08/18 01:32:20;;;;;;;20.20;13.13;;;;;;;14.26;92.29;101343.50;4994242;28;20034;-73
2021/08/18 01:34:45;;;;;;;18.58;11.68;;;;;;;14.24;92.08;101338.47;4997240;28;20041;-74
2021/08/18 01:37:11;;;;;;;15.70;10.88;;;;;;;14.20;91.83;101345.81;4982611;28;20038;-73
2021/08/18 01:39:36;;;;;;;16.63;11.38;;;;;;;14.20;91.68;101340.59;5000086;28;20483;-74
2021/08/18 01:42:02;;;;;;;17.30;11.15;;;;;;;14.24;91.85;101341.09;5002528;28;20033;-74
2021/08/18 01:44:28;;;;;;;17.88;11.35;;;;;;;14.23;91.77;101349.88;4989194;28;20042;-74
2021/08/18 01:46:53;;;;;;;15.82;10.77;;;;;;;14.20;91.86;101348.44;4994728;28;20482;-74
2021/08/18 01:49:18;;;;;;;17.02;10.50;;;;;;;14.18;91.91;101349.56;4989848;28;20037;-73
2021/08/18 01:51:44;;;;;;;18.52;10.32;;;;;;;14.17;92.00;101346.16;4998424;28;20084;-73
2021/08/18 01:54:09;;;;;;;17.15;10.35;;;;;;;14.19;92.29;101348.59;4988047;28;20049;-73
2021/08/18 01:56:35;;;;;;;16.08;10.73;;;;;;;14.31;91.99;101349.03;4989513;28;20436;-73
2021/08/18 01:59:01;;;;;;;15.40;10.85;;;;;;;14.25;91.78;101350.53;4986076;28;20037;-74
2021/08/18 02:01:27;;;;;;;16.65;11.57;;;;;;;14.21;91.80;101347.44;4999863;28;20090;-73
2021/08/18 02:03:52;;;;;;;17.52;11.30;;;;;;;14.23;91.88;101349.06;5014384;28;20027;-73
2021/08/18 02:06:18;;;;;;;20.23;13.73;;;;;;;14.27;91.71;101347.75;4998871;28;20215;-74
2021/08/18 02:08:44;;;;;;;21.50;13.73;;;;;;;14.35;91.51;101348.56;5004092;28;20037;-74
2021/08/18 02:11:10;;;;;;;24.60;15.07;;;;;;;14.28;91.66;101351.97;4993563;28;20027;-74
2021/08/18 02:13:36;;;;;;;20.80;14.02;;;;;;;14.29;92.03;101344.00;5010288;28;20538;-73
2021/08/18 02:16:02;;;;;;;24.48;15.63;;;;;;;14.32;91.81;101341.06;4988075;28;20037;-74
2021/08/18 02:18:28;;;;;;;23.08;14.65;;;;;;;14.29;91.89;101348.41;4990779;28;20041;-74
2021/08/18 02:20:53;;;;;;;25.20;16.67;;;;;;;14.33;92.06;101345.28;4988155;28;20030;-74
2021/08/18 02:23:19;;;;;;;32.25;19.88;;;;;;;14.42;91.82;101348.69;5000837;28;20042;-74
2021/08/18 02:25:44;;;;;;;30.10;18.52;;;;;;;14.32;92.04;101350.69;4995653;28;20030;-74
2021/08/18 02:28:10;;;;;;;40.63;20.90;;;;;;;14.25;92.19;101354.94;5013599;28;20044;-75
2021/08/18 02:30:37;;;;;;;30.70;18.77;;;;;;;14.22;92.40;101350.84;4978632;28;20096;-73
2021/08/18 02:33:04;;;;;;;35.92;21.20;;;;;;;14.28;92.40;101347.59;4998841;28;20522;-74
2021/08/18 02:35:29;;;;;;;33.03;21.27;;;;;;;14.36;91.91;101349.38;4993581;28;20132;-74
2021/08/18 02:37:56;;;;;;;30.77;20.38;;;;;;;14.41;92.04;101347.88;5001222;28;20048;-75
2021/08/18 02:40:23;;;;;;;33.42;21.23;;;;;;;14.42;91.49;101346.06;4991149;28;20640;-74
2021/08/18 02:42:52;;;;;;;35.33;20.77;;;;;;;14.47;91.31;101343.78;5008589;28;20160;-74
2021/08/18 02:45:18;;;;;;;33.63;21.20;;;;;;;14.35;91.49;101350.34;4982146;28;20041;-74
2021/08/18 02:47:44;;;;;;;31.17;19.05;;;;;;;14.31;91.39;101346.44;4987244;28;20102;-74
2021/08/18 02:50:12;;;;;;;30.95;18.42;;;;;;;14.26;92.00;101338.28;5003916;28;20065;-74
2021/08/18 02:52:38;;;;;;;33.60;19.77;;;;;;;14.32;92.13;101340.25;5002261;28;20880;-74
2021/08/18 02:55:04;;;;;;;28.67;17.80;;;;;;;14.26;92.07;101333.06;4990958;28;20042;-74
2021/08/18 02:57:29;;;;;;;30.10;18.23;;;;;;;14.23;92.26;101329.00;4995909;28;20042;-74
2021/08/18 02:59:56;;;;;;;26.88;16.85;;;;;;;14.21;92.45;101329.19;5001271;28;20072;-74
2021/08/18 03:02:22;;;;;;;27.20;16.90;;;;;;;14.25;92.42;101334.06;4990460;28;20034;-74
2021/08/18 03:04:48;;;;;;;24.13;15.10;;;;;;;14.24;92.42;101335.88;4986034;28;20104;-74
2021/08/18 03:07:13;;;;;;;27.17;16.58;;;;;;;14.28;92.35;101337.16;4995803;28;20536;-74
2021/08/18 03:09:39;;;;;;;24.92;15.85;;;;;;;14.30;92.30;101342.22;5014341;28;20029;-74
2021/08/18 03:12:05;;;;;;;28.45;16.63;;;;;;;14.31;92.25;101344.63;4965644;28;20535;-74
2021/08/18 03:14:31;;;;;;;23.05;14.90;;;;;;;14.31;92.01;101343.81;4998490;28;20037;-74
2021/08/18 03:16:56;;;;;;;25.23;16.02;;;;;;;14.33;92.21;101347.06;4999842;28;20530;-74
2021/08/18 03:19:22;;;;;;;24.42;15.77;;;;;;;14.30;92.30;101350.03;4980565;28;20108;-74
2021/08/18 03:21:47;;;;;;;27.45;16.55;;;;;;;14.37;92.26;101348.38;5006893;28;20664;-74
2021/08/18 03:24:13;;;;;;;26.73;15.52;;;;;;;14.30;92.33;101345.63;4999827;28;20042;-74
2021/08/18 03:26:39;;;;;;;27.33;15.15;;;;;;;14.38;92.04;101344.78;5002847;28;20065;-74
2021/08/18 03:29:05;;;;;;;26.08;16.05;;;;;;;14.36;92.13;101350.16;4992689;28;20096;-74
2021/08/18 03:31:30;;;;;;;27.40;16.08;;;;;;;14.45;91.98;101350.97;4986705;28;20034;-74
2021/08/18 03:33:55;;;;;;;22.73;15.68;;;;;;;14.37;91.57;101344.00;5004206;28;20041;-74
2021/08/18 03:36:21;;;;;;;23.48;16.05;;;;;;;14.38;91.75;101339.56;5003662;28;20034;-74
2021/08/18 03:38:47;;;;;;;27.83;15.85;;;;;;;14.38;92.12;101347.41;5004467;28;20581;-74
2021/08/18 03:41:13;;;;;;;24.70;14.95;;;;;;;14.39;92.34;101341.19;5002445;28;20037;-74
2021/08/18 03:43:38;;;;;;;24.65;16.10;;;;;;;14.39;92.18;101338.56;5003003;28;20402;-74
2021/08/18 03:46:04;;;;;;;28.42;17.48;;;;;;;14.36;92.41;101339.75;4990625;28;20063;-74
2021/08/18 03:48:29;;;;;;;29.80;15.73;;;;;;;14.40;92.46;101340.22;4981418;28;20026;-74
2021/08/18 03:50:55;;;;;;;25.88;15.32;;;;;;;14.40;92.60;101341.03;4987255;28;20034;-74
2021/08/18 03:53:20;;;;;;;27.58;16.58;;;;;;;14.40;92.42;101345.44;4990163;28;20041;-75
2021/08/18 03:55:46;;;;;;;29.25;16.88;;;;;;;14.36;92.60;101339.75;4970482;28;20045;-74
2021/08/18 03:58:11;;;;;;;22.42;14.23;;;;;;;14.37;92.92;101340.53;4979036;28;20594;-74
2021/08/18 04:00:37;;;;;;;22.35;14.55;;;;;;;14.36;93.09;101342.34;5003488;28;20053;-74
2021/08/18 04:03:02;;;;;;;27.48;17.65;;;;;;;14.48;92.76;101340.19;5004532;28;20538;-74
2021/08/18 04:05:28;;;;;;;29.60;17.95;;;;;;;14.44;92.72;101345.91;4971824;28;20069;-74
2021/08/18 04:07:54;;;;;;;33.05;18.15;;;;;;;14.41;92.76;101341.84;5009344;28;20041;-75
2021/08/18 04:10:19;;;;;;;31.80;18.10;;;;;;;14.40;92.92;101345.44;4994531;28;20042;-74
2021/08/18 04:12:53;;;;;;;35.28;21.30;;;;;;;14.41;92.87;101352.28;4986666;28;20038;-74
2021/08/18 04:15:23;;;;;;;32.95;20.10;;;;;;;14.38;92.92;101342.19;5001683;28;20045;-74
2021/08/18 04:17:48;;;;;;;41.85;20.77;;;;;;;14.51;92.88;101345.06;4973068;28;20171;-75
2021/08/18 04:20:14;;;;;;;36.35;20.70;;;;;;;14.41;92.70;101342.66;5001514;28;20026;-74
2021/08/18 04:22:41;;;;;;;39.75;23.90;;;;;;;14.52;92.38;101346.72;5008491;28;20434;-74
2021/08/18 04:25:10;;;;;;;32.50;20.15;;;;;;;14.47;92.45;101356.03;4982956;28;20041;-74
2021/08/18 04:27:36;;;;;;;39.03;20.73;;;;;;;14.48;92.67;101353.22;5002949;28;20037;-74
2021/08/18 04:30:03;;;;;;;38.15;21.70;;;;;;;14.53;92.56;101350.13;4990504;28;20100;-75
2021/08/18 04:32:29;;;;;;;40.78;23.42;;;;;;;14.55;92.39;101353.38;4965726;28;20088;-75
2021/08/18 04:34:54;;;;;;;41.15;23.65;;;;;;;14.51;92.35;101346.88;4985357;28;20472;-74
2021/08/18 04:37:20;;;;;;;42.47;24.02;;;;;;;14.56;92.10;101350.59;4958596;28;20097;-74
2021/08/18 04:39:45;;;;;;;38.35;22.25;;;;;;;14.51;92.20;101347.69;4982790;28;20042;-75
2021/08/18 04:42:11;;;;;;;40.22;21.00;;;;;;;14.49;92.12;101346.22;4996293;28;20349;-75
2021/08/18 04:44:36;;;;;;;43.08;24.70;;;;;;;14.51;92.50;101346.88;4964669;28;20049;-75
2021/08/18 04:47:02;;;;;;;42.15;23.70;;;;;;;14.61;92.30;101347.50;4987731;28;20036;-74
2021/08/18 04:49:27;;;;;;;41.90;24.25;;;;;;;14.63;92.01;101344.75;5002447;28;20464;-74
2021/08/18 04:51:53;;;;;;;36.00;20.75;;;;;;;14.54;92.21;101343.91;4998478;28;20489;-74
2021/08/18 04:54:18;;;;;;;39.83;23.80;;;;;;;14.51;92.48;101345.06;4998016;28;20036;-75
2021/08/18 04:56:43;;;;;;;39.00;22.75;;;;;;;14.59;92.41;101346.88;4990668;28;20033;-75
2021/08/18 04:59:09;;;;;;;37.63;23.40;;;;;;;14.54;92.43;101346.53;4998713;28;20599;-75
2021/08/18 05:01:34;;;;;;;44.80;25.10;;;;;;;14.56;92.49;101349.78;4986896;28;20038;-74
2021/08/18 05:04:00;;;;;;;42.20;25.30;;;;;;;14.61;92.13;101347.50;4990992;28;20030;-76
2021/08/18 05:06:25;;;;;;;34.60;21.58;;;;;;;14.58;92.37;101353.09;4982307;28;20100;-75
2021/08/18 05:08:51;;;;;;;40.28;24.67;;;;;;;14.58;92.51;101335.63;4984054;28;20566;-75
2021/08/18 05:11:16;;;;;;;42.47;23.92;;;;;;;14.63;92.51;101340.31;4997989;28;20030;-75
2021/08/18 05:13:42;;;;;;;40.55;24.88;;;;;;;14.63;92.51;101329.06;4964424;28;20057;-74
2021/08/18 05:16:07;;;;;;;44.78;26.63;;;;;;;14.70;92.35;101330.84;4992419;28;20060;-75
2021/08/18 05:18:33;;;;;;;45.67;25.27;;;;;;;14.68;92.43;101332.81;4984547;28;20466;-75
2021/08/18 05:20:58;;;;;;;46.10;26.55;;;;;;;14.72;92.41;101339.31;4980805;28;20042;-74
2021/08/18 05:23:25;;;;;;;41.28;24.02;;;;;;;14.73;92.37;101338.34;4993422;28;20245;-75
2021/08/18 05:25:50;;;;;;;40.67;25.00;;;;;;;14.74;92.41;101336.53;4997872;28;20426;-75
2021/08/18 05:28:18;;;;;;;48.47;25.13;;;;;;;14.71;92.61;101334.25;4985740;28;20354;-75
2021/08/18 05:30:43;;;;;;;42.67;25.08;;;;;;;14.74;92.53;101333.91;4988305;28;20031;-75
2021/08/18 05:33:09;;;;;;;48.00;27.05;;;;;;;14.81;92.34;101339.28;4979311;28;20042;-75
2021/08/18 05:35:34;;;;;;;46.92;28.20;;;;;;;14.80;92.23;101341.06;4993211;28;20488;-76
2021/08/18 05:38:00;;;;;;;52.90;28.42;;;;;;;14.80;91.90;101341.06;4997600;28;20063;-75
2021/08/18 05:40:25;;;;;;;45.78;25.75;;;;;;;14.90;91.79;101346.91;5006378;28;20066;-77
2021/08/18 05:42:51;;;;;;;48.03;27.27;;;;;;;14.94;91.72;101339.53;4994509;28;20308;-75
2021/08/18 05:45:16;;;;;;;49.10;27.83;;;;;;;15.03;91.18;101343.75;4990277;28;20033;-77
2021/08/18 05:47:42;;;;;;;48.45;27.50;;;;;;;15.08;91.65;101338.78;4967970;28;20068;-75
2021/08/18 05:50:08;;;;;;;53.33;27.88;;;;;;;15.02;91.63;101338.69;4981463;28;20033;-76
2021/08/18 05:52:33;;;;;;;53.28;28.80;;;;;;;15.09;91.51;101332.59;4973095;28;20056;-75
2021/08/18 05:55:02;;;;;;;51.28;27.95;;;;;;;15.06;91.65;101340.75;5005661;28;20681;-76
2021/08/18 05:57:28;;;;;;;51.50;28.05;;;;;;;15.06;91.82;101346.00;4967782;28;20041;-75
2021/08/18 05:59:54;;;;;;;58.85;29.70;;;;;;;15.08;91.82;101351.03;4996630;28;20551;-76
2021/08/18 06:02:19;;;;;;;53.40;28.35;;;;;;;15.10;92.03;101341.25;4985695;28;20033;-76
2021/08/18 06:04:45;;;;;;;52.03;30.15;;;;;;;15.14;91.64;101345.13;4991021;28;20738;-76
2021/08/18 06:07:10;;;;;;;46.47;26.55;;;;;;;15.26;91.04;101335.13;5001325;28;20064;-76
2021/08/18 06:09:37;;;;;;;45.58;24.63;;;;;;;15.21;91.22;101345.25;5000756;28;20104;-76
2021/08/18 06:12:04;;;;;;;50.83;29.02;;;;;;;15.27;91.25;101342.75;4995435;28;20033;-76
2021/08/18 06:14:30;;;;;;;49.53;28.13;;;;;;;15.30;91.39;101342.41;4985158;28;20038;-76
2021/08/18 06:16:55;;;;;;;50.00;26.10;;;;;;;15.31;91.41;101340.59;4978221;28;20057;-76
2021/08/18 06:19:21;;;;;;;45.83;26.45;;;;;;;15.30;91.33;101346.84;4978043;28;20037;-76
2021/08/18 06:21:47;;;;;;;47.55;27.55;;;;;;;15.37;90.56;101342.53;4971994;28;20080;-76
2021/08/18 06:26:47;;;;;;;47.72;25.85;;;;;;;15.43;90.80;101348.88;4993932;28;20095;-76
2021/08/18 06:29:12;;;;;;;46.05;25.77;;;;;;;15.51;90.17;101348.81;5005671;28;20030;-76
2021/08/18 06:31:40;;;;;;;48.28;25.40;;;;;;;15.44;90.50;101348.69;4979940;28;20144;-76
2021/08/18 06:34:05;;;;;;;44.75;25.60;;;;;;;15.40;90.90;101354.44;5010533;28;20398;-76
2021/08/18 06:36:31;;;;;;;47.75;27.35;;;;;;;15.49;90.59;101353.41;5014627;28;20530;-76
2021/08/18 06:38:56;;;;;;;50.83;29.65;;;;;;;15.56;90.04;101349.91;5010679;28;20562;-76
2021/08/18 06:41:22;;;;;;;50.15;30.55;;;;;;;15.61;89.65;101354.59;5002003;28;20052;-77
2021/08/18 06:43:47;;;;;;;48.45;29.10;;;;;;;15.57;89.31;101358.56;4975448;28;20030;-76
2021/08/18 06:46:13;;;;;;;51.28;27.85;;;;;;;15.50;90.11;101357.63;5014672;28;20034;-76
2021/08/18 06:48:38;;;;;;;53.78;29.80;;;;;;;15.58;90.27;101352.34;4994677;28;20048;-77
2021/08/18 06:51:04;;;;;;;48.85;27.63;;;;;;;15.63;89.71;101351.81;5002581;28;20030;-76
2021/08/18 06:53:31;;;;;;;57.85;32.33;;;;;;;15.65;90.04;101355.88;5007382;28;20062;-76
2021/08/18 06:55:57;;;;;;;50.92;27.33;;;;;;;15.61;90.00;101349.38;4992936;28;20025;-76
2021/08/18 06:58:22;;;;;;;50.05;27.40;;;;;;;15.64;90.34;101363.91;4983070;28;20038;-75
2021/08/18 07:00:48;;;;;;;54.65;29.35;;;;;;;15.72;89.77;101355.97;4988774;28;20029;-76
2021/08/18 07:03:13;;;;;;;47.47;28.08;;;;;;;15.67;89.88;101350.47;4971522;28;20549;-75
2021/08/18 07:05:39;;;;;;;49.10;27.90;;;;;;;15.78;89.68;101360.53;4980939;28;20320;-76
2021/08/18 07:08:04;;;;;;;44.55;24.00;;;;;;;15.74;89.42;101354.84;4997200;28;20042;-76
2021/08/18 07:10:30;;;;;;;45.35;27.05;;;;;;;15.69;89.91;101365.00;4985301;28;20487;-76
2021/08/18 07:12:55;;;;;;;46.08;26.63;;;;;;;15.74;89.88;101360.06;4994304;28;20521;-76
2021/08/18 07:15:21;;;;;;;51.17;26.75;;;;;;;15.74;89.35;101361.88;4989749;28;20455;-75
2021/08/18 07:17:47;;;;;;;43.33;24.65;;;;;;;15.83;88.92;101358.22;4994160;28;20251;-76
2021/08/18 07:20:13;;;;;;;40.33;23.85;;;;;;;15.80;89.32;101362.97;5001315;28;20533;-75
2021/08/18 07:22:39;;;;;;;45.40;24.90;;;;;;;15.87;89.39;101363.91;4974157;28;20503;-76
2021/08/18 07:25:05;;;;;;;50.13;23.67;;;;;;;15.88;89.57;101365.50;4993388;28;20033;-75
2021/08/18 07:27:31;;;;;;;51.85;24.25;;;;;;;15.83;89.41;101362.63;4999907;28;20062;-76
2021/08/18 07:29:57;;;;;;;40.45;24.33;;;;;;;15.81;90.03;101369.84;4996494;28;20025;-76
2021/08/18 07:32:23;;;;;;;41.33;25.05;;;;;;;15.88;89.54;101366.34;4983389;28;20254;-75
2021/08/18 07:34:49;;;;;;;40.30;23.45;;;;;;;15.99;88.90;101369.50;5002091;28;20593;-75
2021/08/18 07:37:16;;;;;;;35.80;22.75;;;;;;;15.94;88.39;101370.06;4980275;28;20034;-75
2021/08/18 07:39:42;;;;;;;41.28;24.27;;;;;;;15.91;88.76;101365.97;4997315;28;20037;-76
2021/08/18 07:42:07;;;;;;;40.33;23.35;;;;;;;15.88;88.92;101365.50;5006354;28;20266;-75
2021/08/18 07:44:33;;;;;;;203.07;34.80;;;;;;;15.93;88.96;101371.03;4993490;28;20096;-74
2021/08/18 07:46:58;;;;;;;230.32;38.58;;;;;;;15.94;89.17;101367.44;4989391;28;20029;-75
2021/08/18 07:49:24;;;;;;;46.58;24.38;;;;;;;16.06;89.14;101362.56;4987963;28;20145;-75
2021/08/18 07:51:49;;;;;;;35.95;21.73;;;;;;;16.12;88.52;101361.84;4993018;28;20041;-75
2021/08/18 07:54:15;;;;;;;56.33;22.77;;;;;;;16.27;87.81;101364.50;4989401;28;20034;-75
2021/08/18 07:56:40;;;;;;;33.00;20.85;;;;;;;16.33;87.71;101364.59;4987583;28;20430;-75
2021/08/18 07:59:06;;;;;;;90.95;26.38;;;;;;;16.42;87.92;101377.59;4990294;28;20042;-75
2021/08/18 08:01:31;;;;;;;75.35;25.60;;;;;;;16.49;87.25;101374.06;4973499;28;20516;-75
2021/08/18 08:03:56;;;;;;;33.42;19.70;;;;;;;16.64;86.38;101375.88;5007079;28;20400;-76
2021/08/18 08:06:22;;;;;;;29.92;18.67;;;;;;;16.69;85.96;101376.13;5004344;28;20050;-76
2021/08/18 08:08:47;;;;;;;28.83;18.10;;;;;;;16.67;85.39;101380.72;4976942;28;20041;-77
2021/08/18 08:11:13;;;;;;;26.88;16.65;;;;;;;16.64;85.70;101386.34;5003120;28;20037;-75
2021/08/18 08:13:38;;;;;;;26.95;16.58;;;;;;;16.70;85.72;101383.78;5001361;28;20038;-76
2021/08/18 08:16:04;;;;;;;34.42;16.20;;;;;;;16.83;85.76;101382.38;4979820;28;20057;-76
2021/08/18 08:18:29;;;;;;;57.03;15.82;;;;;;;16.91;85.50;101382.25;4982266;28;20037;-75
2021/08/18 08:20:55;;;;;;;87.80;18.45;;;;;;;16.85;84.55;101373.31;4990689;28;20403;-76
2021/08/18 08:23:20;;;;;;;25.70;12.88;;;;;;;16.84;84.59;101376.13;4966155;28;20037;-76
2021/08/18 08:25:46;;;;;;;21.33;13.57;;;;;;;16.82;84.81;101378.09;4996909;28;20034;-77
2021/08/18 08:28:11;;;;;;;16.98;11.77;;;;;;;16.73;85.52;101383.44;5012590;28;20037;-77
2021/08/18 08:30:37;;;;;;;34.63;13.50;;;;;;;16.68;84.57;101372.69;5018975;28;20029;-76
2021/08/18 08:33:03;;;;;;;45.22;13.70;;;;;;;16.65;85.23;101378.31;5014551;28;20025;-75
2021/08/18 08:35:29;;;;;;;21.92;11.70;;;;;;;16.64;85.55;101381.91;5006354;28;20038;-75
2021/08/18 08:37:54;;;;;;;16.70;11.43;;;;;;;16.79;85.16;101379.28;5014769;28;20091;-75
2021/08/18 08:40:20;;;;;;;22.20;11.52;;;;;;;16.84;84.98;101382.19;4996149;28;20543;-75
2021/08/18 08:42:46;;;;;;;18.77;10.52;;;;;;;16.96;84.95;101381.72;4996982;28;20060;-76
2021/08/18 08:45:12;;;;;;;18.33;10.10;;;;;;;16.97;83.68;101371.06;5013625;28;20383;-75
2021/08/18 08:47:38;;;;;;;14.38;9.88;;;;;;;17.14;83.84;101379.50;5020123;28;20034;-76
2021/08/18 08:50:09;;;;;;;18.15;10.02;;;;;;;17.16;84.19;101380.13;5012272;28;20376;-77
2021/08/18 08:52:35;;;;;;;17.23;11.10;;;;;;;17.17;84.10;101375.69;4975751;28;20185;-75
2021/08/18 08:55:01;;;;;;;16.30;10.48;;;;;;;17.19;84.08;101379.75;5013569;28;20195;-75
2021/08/18 08:57:27;;;;;;;12.90;9.48;;;;;;;17.24;83.35;101380.00;4982821;28;20125;-74
2021/08/18 08:59:52;;;;;;;14.70;10.27;;;;;;;17.24;83.80;101381.84;5019431;28;20104;-75
2021/08/18 09:02:20;;;;;;;16.13;9.82;;;;;;;17.20;83.30;101386.63;5010908;28;20085;-75
2021/08/18 09:04:47;;;;;;;17.40;10.27;;;;;;;17.23;84.00;101385.44;4987912;28;20029;-76
2021/08/18 09:07:21;;;;;;;14.65;10.23;;;;;;;17.21;84.13;101384.81;4999905;28;20049;-76
2021/08/18 09:10:02;;;;;;;24.70;11.27;;;;;;;17.35;82.42;101391.00;4992694;28;20411;-77
2021/08/18 09:12:31;;;;;;;12.52;9.23;;;;;;;17.36;82.44;101390.81;4984627;28;20129;-76
2021/08/18 09:14:56;;;;;;;15.02;10.13;;;;;;;17.27;82.18;101391.94;4974109;28;20415;-76
2021/08/18 09:17:26;;;;;;;15.13;9.82;;;;;;;17.25;81.41;101381.66;4976747;28;20083;-75
2021/08/18 09:19:58;;;;;;;17.35;11.15;;;;;;;17.16;83.82;101379.31;4959299;28;20026;-74
2021/08/18 09:22:24;;;;;;;15.15;10.73;;;;;;;17.22;82.50;101395.13;4999386;28;20034;-76
2021/08/18 09:25:06;;;;;;;13.30;8.82;;;;;;;17.40;81.96;101391.25;4993996;28;20281;-75
2021/08/18 09:27:32;;;;;;;10.57;7.90;;;;;;;17.39;81.50;101392.28;5005044;28;20038;-75
2021/08/18 09:29:58;;;;;;;19.88;7.55;;;;;;;17.45;80.68;101388.88;4991901;28;20110;-75
2021/08/18 09:32:31;;;;;;;10.70;5.97;;;;;;;17.38;79.69;101393.25;4983942;28;20054;-74
2021/08/18 09:35:02;;;;;;;7.50;4.18;;;;;;;17.28;78.77;101391.75;4971820;28;20029;-75
2021/08/18 09:37:28;;;;;;;4.93;4.13;;;;;;;17.19;77.87;101390.22;4980875;28;20363;-76
2021/08/18 09:39:55;;;;;;;5.55;3.90;;;;;;;17.16;79.20;101395.88;4976886;28;20092;-74
2021/08/18 09:42:26;;;;;;;5.03;4.03;;;;;;;17.21;79.15;101395.28;4957692;28;20313;-75
2021/08/18 09:45:14;;;;;;;5.60;3.72;;;;;;;17.27;79.15;101397.16;4985343;28;20488;-78
2021/08/18 09:48:14;;;;;;;3.95;3.10;;;;;;;17.37;77.36;101389.03;4962121;28;20109;-75
2021/08/18 09:50:44;;;;;;;4.85;3.38;;;;;;;17.51;77.47;101390.75;4968680;28;20046;-76
2021/08/18 09:53:31;;;;;;;4.15;2.97;;;;;;;17.50;77.20;101386.53;4987174;28;20038;-75
2021/08/18 09:56:03;;;;;;;6.03;3.63;;;;;;;17.61;78.01;101393.06;4987316;28;20056;-75
2021/08/18 09:58:33;;;;;;;3.13;2.13;;;;;;;17.66;76.21;101394.13;4971129;28;20439;-76
2021/08/18 10:01:03;;;;;;;3.70;2.53;;;;;;;17.73;75.67;101383.69;4988622;28;20030;-75
2021/08/18 10:03:31;;;;;;;5.75;2.83;;;;;;;17.83;76.48;101373.69;4987841;28;20038;-76
2021/08/18 10:05:57;;;;;;;6.68;2.75;;;;;;;18.05;74.76;101381.56;4986394;28;20073;-75
2021/08/18 10:08:23;;;;;;;3.53;2.40;;;;;;;18.11;75.89;101380.78;4979731;28;20064;-76
2021/08/18 10:10:49;;;;;;;3.92;2.70;;;;;;;18.28;73.62;101376.03;4986719;28;20033;-74
2021/08/18 10:13:15;;;;;;;7.97;2.92;;;;;;;18.43;74.03;101376.72;4988285;28;20044;-75
2021/08/18 10:15:41;;;;;;;3.50;3.17;;;;;;;18.57;73.44;101374.16;4978126;28;20050;-76
2021/08/18 10:18:08;;;;;;;4.95;2.75;;;;;;;18.66;72.96;101375.63;4962722;28;20100;-74
2021/08/18 10:20:35;;;;;;;5.63;2.42;;;;;;;18.69;72.22;101370.00;4991352;28;20703;-75
2021/08/18 10:23:02;;;;;;;2.85;2.50;;;;;;;18.66;71.92;101376.44;4991675;28;20030;-75
2021/08/18 10:25:46;;;;;;;3.60;2.40;;;;;;;18.67;71.92;101377.25;5004099;28;20448;-75
2021/08/18 10:28:13;;;;;;;2.80;2.25;;;;;;;18.50;72.14;101374.16;4990972;28;20541;-75
2021/08/18 10:30:54;;;;;;;4.95;2.40;;;;;;;18.45;73.41;101374.72;4978731;28;20034;-74
2021/08/18 10:33:50;;;;;;;2.78;2.40;;;;;;;18.18;72.80;101372.97;4996922;28;20038;-76
2021/08/18 10:36:41;;;;;;;4.18;2.25;;;;;;;18.18;73.04;101386.88;4990376;28;20038;-76
2021/08/18 10:39:19;;;;;;;4.10;2.63;;;;;;;18.22;73.62;101375.00;4972945;28;20423;-75
2021/08/18 10:42:03;;;;;;;5.15;3.30;;;;;;;18.15;73.85;101378.59;4987025;28;20041;-76
2021/08/18 10:44:48;;;;;;;3.67;2.95;;;;;;;18.11;74.47;101374.72;4983913;28;20034;-76
2021/08/18 10:47:18;;;;;;;5.70;3.03;;;;;;;18.08;75.68;101370.66;4991344;28;20034;-76
2021/08/18 10:49:45;;;;;;;4.45;2.88;;;;;;;18.21;75.64;101362.88;4987712;28;20048;-76
2021/08/18 10:52:11;;;;;;;5.85;4.05;;;;;;;18.41;75.23;101359.56;4983054;28;20508;-76
2021/08/18 10:54:41;;;;;;;4.20;2.75;;;;;;;18.45;74.12;101358.16;4986315;28;20151;-75
2021/08/18 10:57:49;;;;;;;3.30;2.45;;;;;;;18.68;74.22;101358.69;4998954;28;20053;-76
2021/08/18 11:00:41;;;;;;;4.88;1.70;;;;;;;18.71;70.84;101362.72;5010078;28;20089;-74
2021/08/18 11:03:12;;;;;;;2.28;1.50;;;;;;;18.67;71.83;101358.88;4985793;28;20037;-75
2021/08/18 11:05:38;;;;;;;1.92;1.70;;;;;;;18.56;71.16;101362.06;5004717;28;20495;-74
2021/08/18 11:08:14;;;;;;;2.92;1.70;;;;;;;18.53;70.43;101362.44;5001876;28;20117;-75
2021/08/18 11:10:43;;;;;;;4.93;1.55;;;;;;;18.50;71.95;101355.78;4986652;28;20034;-75
2021/08/18 11:13:11;;;;;;;3.60;1.90;;;;;;;18.38;71.03;101358.13;4994926;28;20513;-75
2021/08/18 11:15:42;;;;;;;3.28;1.90;;;;;;;18.34;71.77;101356.88;5002383;28;20083;-75